Polo, Illinois
Current Conditions -  °F | °C
As of 2:35 AM on Friday 24 Oct 2014 (Local Time) from KFEP Reporting Station
Overcast Overcast  
Wind Chill: 49°   Ceiling: 300
Heat Index: 49°   Visibility: 7mi
Dew Point: 48°   Wind: 0mph
Humidity: 95%   Direction: NA
Pressure: 30.06"   Gusts: NA
Location:  41.99°N, 89.58°W
Report Text: KFEP 240735Z AUTO 00000KT 7SM OVC003 10/09 A3006 RMK AO2 T00960088
Loading
Personal Weather Stations






























Interactive Weather Map
Tropical Storm Tracking
New forecast layout! Learn more

10-Day Weather Forecast

Advertisements
Track Severe Weather on mobile